Norman Y. Mineta San Jose International Airport
KSJC : now visible

Airfield :











YOU CAN JOIN US ON...

 
LOGIN :

Register | Disclaimer

   EN    FR    IT 

 









Legend :    VFR   Marginal VFR   IFR   Intensive IFR   Very Intensive IFR
Visi :
Ceiling :
>= 8 km
>= 3000ft
5 to 8 km
1000 to 3000 ft
1500m to 5 km
500 to 1000 ft
800 to 1500m
200 to 500 ft
< 800m
< 200 ft
Symbols :   Thunderstorms  Fog  Heavy snow  Heavy precipitations  Wind > 20 kt






- Airport Elevation : 62 ft
- IATA code : SJC


KSJC - Norman Y. Mineta San Jose International

CURRENT METAR :
  • 231719Z 29006KT 10SM FEW006 SCT028 BKN160 09/06 A2998 RMK AO2 T00890056

EXPIRED METARs :
  • 231653Z 32004KT 10SM FEW005 BKN027 BKN160 08/05 A2997 RMK AO2 SLP149 T00830050
  • 231635Z 33004KT 10SM FEW005 BKN027 08/05 A2997 RMK AO2 T00780050
  • 231553Z 00000KT 10SM FEW005 SCT027 BKN160 06/04 A2996 RMK AO2 SLP146 T00560044
  • 231453Z 08003KT 10SM FEW005 FEW060 SCT110 06/04 A2994 RMK AO2 SLP139 T00560039 53008

TAF KSJC
Valid from the 23 at 15:00 until the 24 at 12:00 UTC


231436Z 2315/2412 VRB03KT P6SM FEW007 BKN050
FM232000 30008KT P6SM SCT100
FM240300 29004KT P6SM SKC
FM241000 VRB03KT P6SM SCT150
KZOA FIR / North America



MET'MAP, your aeronautical weather chart ! - Copyright ORBIFLY December 2007 - Disclaimer

ORBIFLY MET'MAP TEAM :

Programming & Development : Alexandra Zaïnal
Concept & original design : Baudouin d'Aumeries
Assistance for programming : Marc-Olivier Méhu
Technical & hardware support : Manuel Goepfert

Contact : metmap@orbifly.com




SOURCES & CREDITS :

   NOAA       Earth
Advisory